Time;durP1;ratioP1;P1;durP2;ratioP2;P2;SDS_P1;SDS_P2;PMS_P1;PMS_P2;Temp;Humidity;BMP_temperature;BMP_pressure;BME280_temperature;BME280_humidity;BME280_pressure;Samples;Min_cycle;Max_cycle;Signal;HPM_P1;HPM_P2
2022/12/25 00:01:16;;;;;;;19.63;14.52;;;20.00;41.50;;;;;;5068959;28;20040;-73
2022/12/25 00:03:44;;;;;;;20.27;13.60;;;20.00;41.50;;;;;;5068523;28;20516;-73
2022/12/25 00:06:11;;;;;;;19.52;13.40;;;20.00;41.50;;;;;;5068149;28;20536;-73
2022/12/25 00:08:39;;;;;;;18.15;13.15;;;20.00;41.50;;;;;;5068857;28;20048;-73
2022/12/25 00:11:10;;;;;;;19.75;13.45;;;20.00;41.50;;;;;;5068405;28;20057;-74
2022/12/25 00:13:38;;;;;;;18.63;12.80;;;20.00;41.50;;;;;;5068591;28;20045;-73
2022/12/25 00:16:08;;;;;;;18.92;13.15;;;20.00;41.40;;;;;;5068202;28;20292;-74
2022/12/25 00:18:35;;;;;;;17.30;12.55;;;20.00;41.40;;;;;;5068099;28;20531;-73
2022/12/25 00:21:04;;;;;;;19.48;13.45;;;20.00;41.40;;;;;;5068563;28;20056;-73
2022/12/25 00:23:32;;;;;;;18.60;12.45;;;20.00;41.40;;;;;;5066612;28;20055;-73
2022/12/25 00:26:04;;;;;;;19.30;13.50;;;20.00;41.40;;;;;;5063068;28;20076;-73
2022/12/25 00:28:31;;;;;;;18.90;12.43;;;20.00;41.40;;;;;;5068227;28;20040;-73
2022/12/25 00:30:58;;;;;;;16.98;12.40;;;20.00;41.40;;;;;;5068571;28;20286;-73
2022/12/25 00:33:26;;;;;;;17.10;12.45;;;20.00;41.40;;;;;;5067857;28;20562;-73
2022/12/25 00:36:00;;;;;;;16.15;12.63;;;20.00;41.40;;;;;;5067785;28;20136;-73
2022/12/25 00:38:27;;;;;;;17.20;12.73;;;20.00;41.40;;;;;;5068564;28;20078;-73
2022/12/25 00:40:55;;;;;;;17.50;12.80;;;20.00;41.30;;;;;;5067961;28;20427;-73
2022/12/25 00:43:23;;;;;;;18.50;12.95;;;20.00;41.30;;;;;;5068317;28;20040;-73
2022/12/25 00:45:58;;;;;;;18.88;12.50;;;20.00;41.30;;;;;;5067749;28;20496;-73
2022/12/25 00:48:27;;;;;;;17.70;12.65;;;20.00;41.40;;;;;;5067719;28;20102;-73
2022/12/25 00:50:56;;;;;;;17.13;12.02;;;20.00;41.30;;;;;;5067936;28;20496;-73
2022/12/25 00:53:24;;;;;;;18.48;12.80;;;20.00;41.30;;;;;;5066434;28;20135;-73
2022/12/25 00:55:57;;;;;;;17.00;12.05;;;20.00;41.90;;;;;;5068003;28;20141;-73
2022/12/25 00:58:27;;;;;;;17.95;12.02;;;20.00;41.30;;;;;;5063610;28;20047;-73
2022/12/25 01:00:55;;;;;;;17.52;12.75;;;20.00;41.30;;;;;;5067560;28;20156;-73
2022/12/25 01:03:23;;;;;;;15.77;11.98;;;20.00;41.30;;;;;;5066556;28;20406;-73
2022/12/25 01:05:56;;;;;;;16.70;12.20;;;20.00;41.30;;;;;;5067514;28;20067;-73
2022/12/25 01:08:24;;;;;;;17.52;11.40;;;20.00;41.30;;;;;;5068279;28;20128;-73
2022/12/25 01:10:57;;;;;;;16.65;12.18;;;20.00;41.30;;;;;;5067700;28;20669;-73
2022/12/25 01:13:25;;;;;;;17.15;12.68;;;20.00;41.30;;;;;;5067181;28;20041;-73
2022/12/25 01:15:53;;;;;;;18.25;12.07;;;20.00;41.30;;;;;;5067912;28;20045;-73
2022/12/25 01:18:22;;;;;;;15.63;11.18;;;20.00;41.30;;;;;;5067527;28;20083;-73
2022/12/25 01:20:49;;;;;;;17.48;11.82;;;20.00;41.30;;;;;;5067728;28;20140;-73
2022/12/25 01:23:16;;;;;;;18.33;12.15;;;19.90;41.20;;;;;;5066726;28;20350;-73
2022/12/25 01:25:43;;;;;;;17.05;11.88;;;20.00;41.30;;;;;;5067409;28;20058;-73
2022/12/25 01:28:10;;;;;;;19.90;13.25;;;20.00;41.30;;;;;;5067779;28;20133;-73
2022/12/25 01:30:38;;;;;;;18.42;12.02;;;20.00;41.30;;;;;;5067456;28;20064;-73
2022/12/25 01:33:05;;;;;;;19.10;12.32;;;20.00;41.30;;;;;;5063370;28;20106;-73
2022/12/25 01:35:32;;;;;;;15.38;11.18;;;20.00;41.30;;;;;;5068044;28;20056;-73
2022/12/25 01:37:59;;;;;;;17.23;12.15;;;19.90;41.20;;;;;;5071284;28;20124;-73
2022/12/25 01:40:26;;;;;;;17.20;11.73;;;20.00;41.30;;;;;;5070290;28;20055;-73
2022/12/25 01:42:53;;;;;;;16.40;11.57;;;19.90;41.20;;;;;;5071942;28;20369;-73
2022/12/25 01:45:40;;;;;;;15.73;11.65;;;19.90;41.20;;;;;;5070783;28;20084;-73
2022/12/25 01:48:13;;;;;;;17.10;11.90;;;20.00;41.20;;;;;;5071368;28;20448;-73
2022/12/25 01:50:44;;;;;;;14.82;11.32;;;19.90;41.20;;;;;;5071279;28;20504;-73
2022/12/25 01:53:12;;;;;;;17.65;12.73;;;20.00;41.20;;;;;;5070706;28;20044;-73
2022/12/25 01:55:40;;;;;;;15.38;11.13;;;19.90;41.20;;;;;;5071182;28;20127;-73
2022/12/25 01:58:08;;;;;;;17.13;11.75;;;19.90;41.20;;;;;;5071233;28;20049;-73
2022/12/25 02:00:35;;;;;;;15.50;11.55;;;20.00;41.20;;;;;;5070843;28;20052;-73
2022/12/25 02:03:03;;;;;;;14.75;11.07;;;20.00;41.20;;;;;;5070689;28;20041;-73
2022/12/25 02:05:32;;;;;;;17.75;12.07;;;20.00;41.20;;;;;;5071045;28;20045;-73
2022/12/25 02:08:09;;;;;;;15.32;11.18;;;20.00;41.20;;;;;;5071196;28;20045;-72
2022/12/25 02:10:37;;;;;;;12.52;10.75;;;20.00;41.20;;;;;;5048281;28;20119;-73
2022/12/25 02:13:06;;;;;;;16.95;11.52;;;20.00;41.20;;;;;;5071090;28;20452;-72
2022/12/25 02:15:53;;;;;;;16.52;11.02;;;19.90;41.10;;;;;;5070959;28;20055;-73
2022/12/25 02:18:43;;;;;;;14.98;10.15;;;20.00;41.20;;;;;;5070663;28;20452;-73
2022/12/25 02:21:50;;;;;;;15.45;10.85;;;19.90;41.10;;;;;;5069651;28;20416;-73
2022/12/25 02:24:41;;;;;;;15.65;11.15;;;19.90;41.20;;;;;;5069561;28;20113;-73
2022/12/25 02:27:29;;;;;;;16.45;11.77;;;19.90;41.10;;;;;;5070533;28;20053;-73
2022/12/25 02:30:07;;;;;;;15.27;11.60;;;20.00;41.20;;;;;;5070526;28;20041;-73
2022/12/25 02:32:46;;;;;;;16.42;11.20;;;19.90;41.10;;;;;;5070090;28;20147;-73
2022/12/25 02:35:24;;;;;;;14.95;10.10;;;19.90;41.10;;;;;;5070529;28;20131;-73
2022/12/25 02:38:04;;;;;;;15.80;10.63;;;19.90;41.10;;;;;;5070250;28;20045;-73
2022/12/25 02:40:41;;;;;;;13.50;10.57;;;20.00;41.20;;;;;;5069009;28;20048;-73
2022/12/25 03:07:12;;;;;;;15.38;10.45;;;20.00;41.10;;;;;;5070111;28;20075;-73
2022/12/25 03:12:43;;;;;;;15.18;10.52;;;20.00;41.10;;;;;;5069362;28;20056;-73
2022/12/25 03:18:02;;;;;;;15.45;10.23;;;19.90;41.10;;;;;;5068242;28;20074;-73
2022/12/25 03:28:58;;;;;;;13.82;9.65;;;20.00;41.10;;;;;;5069582;28;20045;-73
2022/12/25 03:31:35;;;;;;;16.70;9.93;;;19.90;41.10;;;;;;5069795;28;20067;-73
2022/12/25 03:38:13;;;;;;;13.55;9.90;;;20.00;41.10;;;;;;5069601;28;20099;-73
2022/12/25 03:42:15;;;;;;;13.55;9.95;;;19.90;41.10;;;;;;5068871;28;20049;-73
2022/12/25 03:47:22;;;;;;;13.05;8.98;;;19.90;41.10;;;;;;5068857;28;20044;-73
2022/12/25 04:37:25;;;;;;;11.32;8.75;;;19.90;41.10;;;;;;5068522;28;20048;-73
2022/12/25 04:39:52;;;;;;;11.52;8.65;;;19.90;41.00;;;;;;5068108;28;20041;-73
2022/12/25 04:42:19;;;;;;;12.00;8.40;;;19.90;41.10;;;;;;5068144;28;20131;-72
2022/12/25 04:44:46;;;;;;;12.35;8.82;;;19.90;41.10;;;;;;5068503;28;20131;-73
2022/12/25 04:47:13;;;;;;;12.70;8.88;;;19.90;41.10;;;;;;5066276;28;20051;-73
2022/12/25 04:49:40;;;;;;;11.55;9.30;;;19.90;41.10;;;;;;5067999;28;20414;-73
2022/12/25 04:54:36;;;;;;;11.88;8.65;;;19.90;41.00;;;;;;5067920;28;20132;-73
2022/12/25 04:57:03;;;;;;;13.48;8.82;;;19.90;41.00;;;;;;5067732;28;20492;-73
2022/12/25 04:59:30;;;;;;;12.73;8.90;;;19.90;41.00;;;;;;5067516;28;20045;-73
2022/12/25 05:01:57;;;;;;;11.63;8.25;;;19.90;41.00;;;;;;5067127;28;20383;-73
2022/12/25 05:04:25;;;;;;;12.32;7.72;;;19.90;41.00;;;;;;5068293;28;20483;-73
2022/12/25 05:06:52;;;;;;;11.23;8.23;;;19.90;41.00;;;;;;5067364;28;20083;-73
2022/12/25 05:09:19;;;;;;;11.15;8.48;;;19.90;41.00;;;;;;5063659;28;20048;-73
2022/12/25 05:11:46;;;;;;;11.20;7.57;;;19.90;41.00;;;;;;5066756;28;20084;-73
2022/12/25 05:14:14;;;;;;;10.93;8.55;;;19.90;41.00;;;;;;5067891;28;20076;-73
2022/12/25 05:16:41;;;;;;;11.27;8.27;;;19.90;41.00;;;;;;5067352;28;20049;-73
2022/12/25 05:19:09;;;;;;;10.30;7.63;;;19.90;41.00;;;;;;5067686;28;20239;-73
2022/12/25 05:21:36;;;;;;;10.30;7.80;;;19.90;41.00;;;;;;5067442;28;20135;-73
2022/12/25 05:24:03;;;;;;;10.13;7.97;;;19.90;41.00;;;;;;5067433;28;20041;-73
2022/12/25 05:26:30;;;;;;;11.38;7.93;;;19.90;40.90;;;;;;5067665;28;20045;-73
2022/12/25 05:28:58;;;;;;;11.07;8.15;;;19.90;40.90;;;;;;5067928;28;20048;-73
2022/12/25 05:31:25;;;;;;;12.52;8.55;;;19.90;41.00;;;;;;5066820;28;20056;-73
2022/12/25 05:33:52;;;;;;;11.82;8.02;;;19.90;40.90;;;;;;5068134;28;20047;-73
2022/12/25 05:36:20;;;;;;;11.02;7.85;;;19.90;40.90;;;;;;5067255;28;20110;-73
2022/12/25 05:38:47;;;;;;;12.00;8.40;;;19.90;40.90;;;;;;5067546;28;20131;-73
2022/12/25 05:41:14;;;;;;;11.93;8.07;;;19.90;40.70;;;;;;5067535;28;20055;-73
2022/12/25 05:43:41;;;;;;;11.93;8.20;;;19.90;40.60;;;;;;5065260;28;20405;-73
2022/12/25 05:46:10;;;;;;;11.45;8.20;;;19.90;40.60;;;;;;5064633;28;20398;-73
2022/12/25 05:48:37;;;;;;;11.50;8.13;;;19.90;41.20;;;;;;5067079;28;20512;-72
2022/12/25 05:51:07;;;;;;;11.73;8.27;;;19.90;40.60;;;;;;5067863;28;20367;-73
2022/12/25 05:53:35;;;;;;;11.70;7.70;;;19.90;40.60;;;;;;5067116;28;20458;-73
2022/12/25 05:56:04;;;;;;;11.10;7.65;;;19.90;40.50;;;;;;5067515;28;20048;-73
2022/12/25 05:58:33;;;;;;;12.05;8.77;;;19.90;40.50;;;;;;5067005;28;20525;-73
2022/12/25 06:01:01;;;;;;;11.80;8.50;;;19.90;40.40;;;;;;5067451;28;20303;-73
2022/12/25 06:03:28;;;;;;;10.65;8.00;;;20.00;40.30;;;;;;5067687;28;20131;-73
2022/12/25 06:05:55;;;;;;;10.05;7.50;;;20.00;40.30;;;;;;5066758;28;20102;-73
2022/12/25 06:08:23;;;;;;;9.85;7.85;;;20.00;40.30;;;;;;5067358;28;20109;-73
2022/12/25 06:10:50;;;;;;;12.82;9.40;;;20.10;40.30;;;;;;5067388;28;20045;-73
2022/12/25 06:13:17;;;;;;;9.70;8.30;;;20.10;40.30;;;;;;5066495;28;20063;-73
2022/12/25 06:15:44;;;;;;;11.85;7.55;;;20.10;40.20;;;;;;5067175;28;20041;-73
2022/12/25 06:18:11;;;;;;;12.55;8.32;;;20.10;40.10;;;;;;5067040;28;20040;-73
2022/12/25 06:20:41;;;;;;;12.15;7.45;;;20.20;40.10;;;;;;5062543;28;20127;-73
2022/12/25 06:23:08;;;;;;;12.40;8.63;;;20.20;40.10;;;;;;5068981;28;20044;-73
2022/12/25 06:25:39;;;;;;;9.83;7.17;;;20.20;40.00;;;;;;5070238;28;20048;-73
2022/12/25 06:28:06;;;;;;;;;;;20.20;39.90;;;;;;5072006;28;20048;-73
2022/12/25 06:30:33;;;;;;;10.88;7.20;;;20.20;39.90;;;;;;5070480;28;20220;-73
2022/12/25 06:33:01;;;;;;;10.95;7.80;;;20.30;39.80;;;;;;5069421;28;20083;-73
2022/12/25 06:35:28;;;;;;;11.27;7.60;;;20.20;39.70;;;;;;5070882;28;20404;-73
2022/12/25 06:37:55;;;;;;;11.20;7.65;;;20.20;39.70;;;;;;5070543;28;20048;-73
2022/12/25 06:40:22;;;;;;;9.77;7.20;;;20.30;39.70;;;;;;5070702;28;20055;-73
2022/12/25 06:42:50;;;;;;;11.93;7.60;;;20.30;39.60;;;;;;5069697;28;20045;-73
2022/12/25 06:45:17;;;;;;;10.15;7.65;;;20.30;39.60;;;;;;5069154;28;20049;-72
2022/12/25 06:47:44;;;;;;;10.00;7.57;;;20.30;39.50;;;;;;5070027;28;20059;-73
2022/12/25 06:50:12;;;;;;;9.75;7.32;;;20.40;39.50;;;;;;5069990;28;20544;-73
2022/12/25 06:52:39;;;;;;;9.60;7.70;;;20.40;39.40;;;;;;5070209;28;20092;-73
2022/12/25 06:55:06;;;;;;;13.13;8.60;;;20.40;39.40;;;;;;5069773;28;20132;-73
2022/12/25 06:57:33;;;;;;;13.52;9.45;;;20.50;39.40;;;;;;5065610;28;20420;-72
2022/12/25 07:00:00;;;;;;;11.27;8.40;;;20.50;39.30;;;;;;5069842;28;20127;-73
2022/12/25 07:02:27;;;;;;;12.98;8.60;;;20.50;39.30;;;;;;5069644;28;20048;-73
2022/12/25 07:04:55;;;;;;;11.98;8.68;;;20.50;39.30;;;;;;5069961;28;20455;-73
2022/12/25 07:07:22;;;;;;;11.68;8.07;;;20.60;39.80;;;;;;5069778;28;20429;-73
2022/12/25 07:09:49;;;;;;;11.73;8.60;;;20.60;39.20;;;;;;5069670;28;20136;-73
2022/12/25 07:12:22;;;;;;;12.68;8.70;;;20.60;39.10;;;;;;5069848;28;20054;-73
2022/12/25 07:14:52;;;;;;;12.98;8.50;;;20.60;39.00;;;;;;5069489;28;20071;-73
2022/12/25 07:17:20;;;;;;;14.43;9.87;;;20.60;39.00;;;;;;5068599;28;20391;-73
2022/12/25 07:19:47;;;;;;;13.57;9.55;;;20.70;39.00;;;;;;5069114;28;20140;-73
2022/12/25 07:22:15;;;;;;;14.30;9.55;;;20.70;38.90;;;;;;5069448;28;20425;-73
2022/12/25 07:24:42;;;;;;;16.40;10.80;;;20.70;38.80;;;;;;5068934;28;20378;-73
2022/12/25 07:27:09;;;;;;;15.70;10.30;;;20.70;38.80;;;;;;5069441;28;20048;-73
2022/12/25 07:29:37;;;;;;;14.50;10.43;;;20.80;38.80;;;;;;5069866;28;20084;-73
2022/12/25 07:32:04;;;;;;;13.68;10.40;;;20.80;38.70;;;;;;5066976;28;20136;-73
2022/12/25 07:34:31;;;;;;;17.00;10.98;;;20.80;38.70;;;;;;5065970;28;20048;-73
2022/12/25 07:36:58;;;;;;;15.95;10.88;;;20.80;38.60;;;;;;5069233;28;20054;-73
2022/12/25 07:39:25;;;;;;;16.02;10.48;;;20.80;38.50;;;;;;5069113;28;20090;-73
2022/12/25 07:41:52;;;;;;;17.02;10.95;;;20.80;38.50;;;;;;5069060;28;20495;-73
2022/12/25 07:44:20;;;;;;;14.65;10.25;;;20.90;38.50;;;;;;5068579;28;20119;-73
2022/12/25 07:46:47;;;;;;;16.52;11.02;;;20.90;38.50;;;;;;5069055;28;20733;-73
2022/12/25 07:49:15;;;;;;;18.50;11.45;;;20.90;38.40;;;;;;5069059;28;20054;-73
2022/12/25 07:51:42;;;;;;;16.95;11.05;;;21.00;38.40;;;;;;5067621;28;20046;-73
2022/12/25 07:54:09;;;;;;;17.75;11.98;;;21.00;38.70;;;;;;5069621;28;20048;-73
2022/12/25 07:56:36;;;;;;;17.42;11.27;;;21.00;38.40;;;;;;5067279;28;20045;-73
2022/12/25 07:59:03;;;;;;;16.00;12.00;;;21.00;38.30;;;;;;5067452;28;20052;-73
2022/12/25 08:01:30;;;;;;;18.23;12.63;;;21.10;38.30;;;;;;5068750;28;20037;-73
2022/12/25 08:04:00;;;;;;;19.40;12.80;;;21.10;38.20;;;;;;5048710;28;20099;-73
2022/12/25 08:06:33;;;;;;;18.70;12.80;;;21.10;38.20;;;;;;5048875;28;20045;-73
2022/12/25 08:09:11;;;;;;;21.30;13.65;;;21.20;38.20;;;;;;5043667;28;20158;-73
2022/12/25 08:11:43;;;;;;;26.98;14.95;;;21.20;38.20;;;;;;5048799;28;20045;-73
2022/12/25 08:14:10;;;;;;;19.63;13.07;;;21.20;38.10;;;;;;5047729;28;20049;-73
2022/12/25 08:16:40;;;;;;;21.90;13.52;;;21.20;38.00;;;;;;5048845;28;20347;-73
2022/12/25 08:19:08;;;;;;;19.92;14.75;;;21.30;38.00;;;;;;5048547;28;20049;-73
2022/12/25 08:21:35;;;;;;;22.00;14.85;;;21.30;38.00;;;;;;5048025;28;20045;-73
2022/12/25 08:24:02;;;;;;;22.73;14.50;;;21.30;37.90;;;;;;5048263;28;20059;-72
2022/12/25 08:26:30;;;;;;;21.70;14.63;;;21.40;37.90;;;;;;5048169;28;20053;-73
2022/12/25 08:28:57;;;;;;;19.00;13.88;;;21.40;37.90;;;;;;5067706;28;20145;-73
2022/12/25 08:31:28;;;;;;;20.58;14.40;;;21.40;37.90;;;;;;5068499;28;20451;-74
2022/12/25 08:33:57;;;;;;;22.05;16.15;;;21.40;37.80;;;;;;5067754;28;20420;-73
2022/12/25 08:36:24;;;;;;;22.52;15.68;;;21.40;37.80;;;;;;5068269;28;20473;-73
2022/12/25 08:38:52;;;;;;;21.90;15.13;;;21.50;37.80;;;;;;5068285;28;20398;-73
2022/12/25 08:41:28;;;;;;;22.92;15.85;;;21.50;37.80;;;;;;5068623;28;20051;-73
2022/12/25 08:43:55;;;;;;;20.83;14.95;;;21.50;37.70;;;;;;5063224;28;20140;-73
2022/12/25 08:46:22;;;;;;;26.05;16.67;;;21.50;37.70;;;;;;5067244;28;20048;-73
2022/12/25 08:48:50;;;;;;;21.85;15.50;;;21.50;37.70;;;;;;5067723;28;20049;-73
2022/12/25 08:51:20;;;;;;;22.52;14.75;;;21.50;37.70;;;;;;5068194;28;20127;-73
2022/12/25 08:53:49;;;;;;;24.60;17.00;;;21.60;37.70;;;;;;5067278;28;20456;-73
2022/12/25 08:56:18;;;;;;;22.48;15.00;;;21.60;37.70;;;;;;5066663;28;20049;-73
2022/12/25 08:58:46;;;;;;;24.50;15.93;;;21.60;37.70;;;;;;5067696;28;20144;-73
2022/12/25 09:01:13;;;;;;;24.05;16.92;;;21.60;37.70;;;;;;5067763;28;20044;-73
2022/12/25 09:03:41;;;;;;;24.42;16.92;;;21.70;37.70;;;;;;5066740;28;20102;-73
2022/12/25 09:06:11;;;;;;;23.73;16.58;;;21.70;37.70;;;;;;5068541;28;20166;-73
2022/12/25 09:08:38;;;;;;;23.67;16.92;;;21.70;37.60;;;;;;5067402;28;20162;-73
2022/12/25 09:11:15;;;;;;;23.67;17.10;;;21.80;38.20;;;;;;5067760;28;20040;-72
2022/12/25 09:13:42;;;;;;;24.35;18.40;;;21.80;37.60;;;;;;5067021;28;20685;-73
2022/12/25 09:16:16;;;;;;;23.88;17.33;;;21.80;37.50;;;;;;5067898;28;20076;-73
2022/12/25 09:18:43;;;;;;;27.90;19.13;;;21.80;37.50;;;;;;5067738;28;20041;-73
2022/12/25 09:21:12;;;;;;;27.90;18.80;;;21.80;37.50;;;;;;5063072;28;20117;-73
2022/12/25 09:23:40;;;;;;;28.65;19.30;;;21.90;37.50;;;;;;5066966;28;20508;-73
2022/12/25 09:26:11;;;;;;;28.45;19.15;;;21.90;37.50;;;;;;5067725;28;20724;-73
2022/12/25 09:28:38;;;;;;;26.60;18.52;;;21.90;37.40;;;;;;5067513;28;20522;-73
2022/12/25 09:31:09;;;;;;;25.92;18.70;;;21.90;37.40;;;;;;5067636;28;20080;-73
2022/12/25 09:33:36;;;;;;;31.15;19.92;;;21.90;37.40;;;;;;5067284;28;20053;-73
2022/12/25 09:36:06;;;;;;;31.20;20.23;;;22.00;37.50;;;;;;5067972;28;20045;-73
2022/12/25 09:38:33;;;;;;;30.23;20.60;;;22.00;38.00;;;;;;5067543;28;20050;-73
2022/12/25 09:41:11;;;;;;;27.50;19.50;;;22.00;37.40;;;;;;5066242;28;20102;-73
2022/12/25 09:43:45;;;;;;;30.40;19.27;;;22.00;37.30;;;;;;5067857;28;20134;-73
2022/12/25 09:46:18;;;;;;;27.58;18.38;;;22.10;37.40;;;;;;5067455;28;20048;-72
2022/12/25 09:49:10;;;;;;;28.67;20.38;;;22.10;37.40;;;;;;5067557;28;20382;-73
2022/12/25 09:51:39;;;;;;;27.80;18.95;;;22.10;37.30;;;;;;5066330;28;20394;-73
2022/12/25 09:54:17;;;;;;;26.45;19.02;;;22.10;37.30;;;;;;5064530;28;20048;-73
2022/12/25 09:56:44;;;;;;;29.70;19.98;;;22.20;37.30;;;;;;5067592;28;20040;-73
2022/12/25 09:59:24;;;;;;;29.10;19.73;;;22.20;37.20;;;;;;5069100;28;20335;-73
2022/12/25 10:02:17;;;;;;;25.02;19.02;;;22.20;37.20;;;;;;5069578;28;20047;-73
2022/12/25 10:05:24;;;;;;;27.10;19.27;;;22.20;37.20;;;;;;5056460;28;20048;-73
2022/12/25 10:08:21;;;;;;;26.25;19.85;;;22.30;37.20;;;;;;5070791;28;20059;-73
2022/12/25 10:11:00;;;;;;;28.58;19.45;;;22.20;37.10;;;;;;5055425;28;20512;-73
2022/12/25 10:14:07;;;;;;;30.48;20.02;;;22.20;37.10;;;;;;5069162;28;20079;-73
2022/12/25 10:17:11;;;;;;;29.48;18.45;;;22.30;37.20;;;;;;5058608;28;20128;-73
2022/12/25 10:20:06;;;;;;;28.08;18.95;;;22.30;37.20;;;;;;5071183;28;20385;-73
2022/12/25 10:22:39;;;;;;;25.48;17.90;;;22.30;37.20;;;;;;5070295;28;20499;-73
2022/12/25 10:25:15;;;;;;;28.40;19.17;;;22.30;37.20;;;;;;5069393;28;20050;-73
2022/12/25 10:27:43;;;;;;;28.42;18.75;;;22.30;37.20;;;;;;5070542;28;20056;-73
2022/12/25 10:30:23;;;;;;;27.05;18.02;;;22.30;37.20;;;;;;5070498;28;20459;-73
2022/12/25 10:32:51;;;;;;;28.33;18.75;;;22.30;37.20;;;;;;5067336;28;20464;-73
2022/12/25 10:35:21;;;;;;;24.77;17.77;;;22.30;37.20;;;;;;5070052;28;20082;-73
2022/12/25 10:37:57;;;;;;;27.23;18.50;;;22.30;37.30;;;;;;5070359;28;20062;-73
2022/12/25 10:40:58;;;;;;;27.02;17.88;;;22.30;37.30;;;;;;5070578;28;20413;-73
2022/12/25 10:43:48;;;;;;;26.60;18.65;;;22.40;37.30;;;;;;5070304;28;20040;-73
2022/12/25 10:46:16;;;;;;;;;;;22.40;37.20;;;;;;5070804;28;20072;-73
2022/12/25 10:48:49;;;;;;;28.20;18.23;;;22.40;37.20;;;;;;5070065;28;20011;-73
2022/12/25 10:51:30;;;;;;;22.70;16.77;;;22.40;37.20;;;;;;5070002;28;20040;-73
2022/12/25 10:53:57;;;;;;;25.10;17.13;;;22.40;37.20;;;;;;5069889;28;20052;-74
2022/12/25 10:56:24;;;;;;;27.65;17.50;;;22.40;37.20;;;;;;5070218;28;20044;-73
2022/12/25 10:59:06;;;;;;;22.50;17.05;;;22.40;37.20;;;;;;5069923;28;20546;-74
2022/12/25 11:01:33;;;;;;;23.98;16.35;;;22.40;37.20;;;;;;5070056;28;20560;-72
2022/12/25 11:04:01;;;;;;;22.40;16.65;;;22.40;37.20;;;;;;5069497;28;20048;-74
2022/12/25 11:06:31;;;;;;;26.55;18.15;;;22.40;37.20;;;;;;5065987;28;20455;-74
2022/12/25 11:09:00;;;;;;;24.65;17.35;;;22.50;37.20;;;;;;5051539;28;20624;-74
2022/12/25 11:11:28;;;;;;;25.50;16.00;;;22.50;37.10;;;;;;5070160;28;20040;-73
2022/12/25 11:14:01;;;;;;;22.75;16.23;;;22.50;37.20;;;;;;5067540;28;20493;-74
2022/12/25 11:16:37;;;;;;;23.35;16.98;;;22.50;37.10;;;;;;5070225;28;20098;-73
2022/12/25 11:19:29;;;;;;;20.75;15.05;;;22.50;37.10;;;;;;5069658;28;20040;-74
2022/12/25 11:21:59;;;;;;;22.92;15.32;;;22.50;37.10;;;;;;5069513;28;20052;-74
2022/12/25 11:24:31;;;;;;;23.20;16.40;;;22.50;37.10;;;;;;5069130;28;20084;-73
2022/12/25 11:27:03;;;;;;;23.58;16.85;;;22.50;37.10;;;;;;5068324;28;20048;-74
2022/12/25 11:29:47;;;;;;;21.05;15.95;;;22.50;37.10;;;;;;5069306;28;20048;-73
2022/12/25 11:32:21;;;;;;;23.80;15.30;;;22.50;37.10;;;;;;5069749;28;20045;-73
2022/12/25 11:34:49;;;;;;;19.95;15.20;;;22.50;37.00;;;;;;5068118;28;20058;-73
2022/12/25 11:37:25;;;;;;;21.10;15.00;;;22.60;37.00;;;;;;5069075;28;20268;-73
2022/12/25 11:39:53;;;;;;;19.95;14.80;;;22.60;37.00;;;;;;5069263;28;20044;-74
2022/12/25 11:42:27;;;;;;;22.13;14.93;;;22.60;37.00;;;;;;5069363;28;20059;-74
2022/12/25 11:45:17;;;;;;;20.73;15.30;;;22.60;37.00;;;;;;5064187;28;20059;-74
2022/12/25 11:47:57;;;;;;;20.63;14.40;;;22.60;37.00;;;;;;5069112;28;20242;-73
2022/12/25 11:50:35;;;;;;;22.92;16.17;;;22.60;36.90;;;;;;5068502;28;20132;-73
2022/12/25 11:53:20;;;;;;;20.73;14.98;;;22.60;36.90;;;;;;5069012;28;20044;-73
2022/12/25 11:55:53;;;;;;;19.95;14.45;;;22.60;36.90;;;;;;5069027;28;20554;-73
2022/12/25 11:58:43;;;;;;;19.33;14.48;;;22.60;36.90;;;;;;5068997;28;20052;-74
2022/12/25 12:01:50;;;;;;;23.15;14.88;;;22.70;36.90;;;;;;5068381;28;20135;-74
2022/12/25 12:04:36;;;;;;;23.48;14.25;;;22.70;36.90;;;;;;5068872;28;20045;-74
2022/12/25 12:07:29;;;;;;;17.60;13.65;;;22.70;36.90;;;;;;5068455;28;20285;-74
2022/12/25 12:10:17;;;;;;;18.92;14.43;;;22.70;36.90;;;;;;5068703;28;20471;-73
2022/12/25 12:13:01;;;;;;;21.60;14.02;;;22.60;36.80;;;;;;5068462;28;20151;-73
2022/12/25 12:15:38;;;;;;;20.70;14.27;;;22.70;36.90;;;;;;5068742;28;20048;-73
2022/12/25 12:18:30;;;;;;;18.95;13.27;;;22.70;36.90;;;;;;5063226;28;20047;-73
2022/12/25 12:21:22;;;;;;;16.98;13.02;;;22.70;36.80;;;;;;5065961;28;20143;-73
2022/12/25 12:24:11;;;;;;;17.35;12.00;;;22.70;36.80;;;;;;5066792;28;20416;-73
2022/12/25 12:26:41;;;;;;;17.42;12.57;;;22.70;36.80;;;;;;5067957;28;20128;-73
2022/12/25 12:29:24;;;;;;;17.70;12.30;;;22.70;36.80;;;;;;5067100;28;20052;-73
2022/12/25 12:31:52;;;;;;;18.13;12.13;;;22.70;36.80;;;;;;5068107;28;20044;-73
2022/12/25 12:34:41;;;;;;;17.55;12.57;;;22.70;36.70;;;;;;5067982;28;20052;-73
2022/12/25 12:37:30;;;;;;;16.77;11.95;;;22.70;36.70;;;;;;5068357;28;20040;-73
2022/12/25 12:39:58;;;;;;;18.38;12.20;;;22.70;36.70;;;;;;5068147;28;20071;-73
2022/12/25 12:42:30;;;;;;;16.33;10.30;;;22.70;36.70;;;;;;5068595;28;20049;-73
2022/12/25 12:45:14;;;;;;;15.23;10.02;;;22.70;36.70;;;;;;5067205;28;20382;-73
2022/12/25 12:47:45;;;;;;;15.80;11.05;;;22.70;36.70;;;;;;5068168;28;20036;-72
2022/12/25 12:50:30;;;;;;;13.88;9.45;;;22.70;36.70;;;;;;5065922;28;20095;-73
2022/12/25 12:52:58;;;;;;;13.65;10.32;;;22.70;36.70;;;;;;5068261;28;20408;-73
2022/12/25 12:55:31;;;;;;;12.80;9.43;;;22.70;36.70;;;;;;5068192;28;20048;-73
2022/12/25 12:58:00;;;;;;;13.25;9.77;;;22.70;36.60;;;;;;5067693;28;20135;-72
2022/12/25 13:01:02;;;;;;;10.85;8.63;;;22.70;36.70;;;;;;5066858;28;20048;-73
2022/12/25 13:03:59;;;;;;;12.50;9.35;;;22.70;36.60;;;;;;5066491;28;20044;-74
2022/12/25 13:06:48;;;;;;;15.27;10.15;;;22.70;36.60;;;;;;5067438;28;20592;-73
2022/12/25 13:09:54;;;;;;;12.27;8.93;;;22.70;36.60;;;;;;5067902;28;20055;-74
2022/12/25 13:12:22;;;;;;;11.93;8.43;;;22.70;36.60;;;;;;5067644;28;20098;-73
2022/12/25 13:14:49;;;;;;;13.40;8.98;;;22.70;36.60;;;;;;5067817;28;20044;-73
2022/12/25 13:17:20;;;;;;;11.70;8.32;;;22.70;36.60;;;;;;5067515;28;20055;-74
2022/12/25 13:19:58;;;;;;;11.25;8.32;;;22.70;36.60;;;;;;5068074;28;20053;-73
2022/12/25 13:22:31;;;;;;;12.52;8.82;;;22.70;36.70;;;;;;5067158;28;20520;-73
2022/12/25 13:25:03;;;;;;;9.98;7.57;;;22.70;36.60;;;;;;5067530;28;20504;-73
2022/12/25 13:27:32;;;;;;;11.75;8.05;;;22.70;36.70;;;;;;5061318;28;20135;-73
2022/12/25 13:30:10;;;;;;;10.90;7.88;;;22.70;36.60;;;;;;5068125;28;20052;-73
2022/12/25 13:32:37;;;;;;;11.00;7.47;;;22.70;36.70;;;;;;5069883;28;20044;-73
2022/12/25 13:35:10;;;;;;;9.98;7.05;;;22.70;36.70;;;;;;5071823;28;20056;-73
2022/12/25 13:37:38;;;;;;;12.52;7.53;;;22.60;36.70;;;;;;5070377;28;20422;-74
2022/12/25 13:40:07;;;;;;;9.93;7.18;;;22.60;36.60;;;;;;5071285;28;20053;-73
2022/12/25 13:42:38;;;;;;;10.70;7.23;;;22.70;36.60;;;;;;5071442;28;20040;-73
2022/12/25 13:45:22;;;;;;;9.52;6.90;;;22.60;36.50;;;;;;5070796;28;20055;-73
2022/12/25 13:47:51;;;;;;;11.73;7.25;;;22.70;36.60;;;;;;5071101;28;20136;-73
2022/12/25 13:50:31;;;;;;;9.25;6.63;;;22.70;36.60;;;;;;5071603;28;20153;-74
2022/12/25 13:53:11;;;;;;;8.73;6.20;;;22.70;36.60;;;;;;5070623;28;20135;-73
2022/12/25 13:55:39;;;;;;;10.25;6.38;;;22.70;36.60;;;;;;5070384;28;20051;-74
2022/12/25 13:58:16;;;;;;;9.07;7.18;;;22.70;36.60;;;;;;5070846;28;20139;-73
2022/12/25 14:00:49;;;;;;;9.27;6.43;;;22.70;36.60;;;;;;5067113;28;20135;-73
2022/12/25 14:03:32;;;;;;;8.48;5.93;;;22.70;36.60;;;;;;5069452;28;20044;-74
2022/12/25 14:06:05;;;;;;;8.48;6.00;;;22.60;36.50;;;;;;5071254;28;20044;-73
2022/12/25 14:08:34;;;;;;;9.85;5.80;;;22.60;36.50;;;;;;5070900;28;20064;-73
2022/12/25 14:11:04;;;;;;;6.90;5.45;;;22.60;36.50;;;;;;5071075;28;20048;-73
2022/12/25 14:13:36;;;;;;;7.30;5.57;;;22.70;36.60;;;;;;5070638;28;20185;-73
2022/12/25 14:16:04;;;;;;;7.57;5.13;;;22.60;36.60;;;;;;5070662;28;20109;-73
2022/12/25 14:18:32;;;;;;;7.03;5.38;;;22.70;37.20;;;;;;5071280;28;20082;-74
2022/12/25 14:21:04;;;;;;;9.27;6.15;;;22.60;36.60;;;;;;5070776;28;20041;-73
2022/12/25 14:23:43;;;;;;;7.70;5.93;;;22.60;36.60;;;;;;5070375;28;20080;-74
2022/12/25 14:26:20;;;;;;;9.50;6.40;;;22.60;36.60;;;;;;5069369;28;20076;-73
2022/12/25 14:28:52;;;;;;;9.75;5.97;;;22.60;36.60;;;;;;5070578;28;20040;-73
2022/12/25 14:31:20;;;;;;;8.32;5.75;;;22.60;36.70;;;;;;5070506;28;20135;-73
2022/12/25 14:33:49;;;;;;;9.02;5.90;;;22.60;36.70;;;;;;5065330;28;20207;-73
2022/12/25 14:36:16;;;;;;;9.05;5.95;;;22.60;36.70;;;;;;5070411;28;20128;-73